»·PEaware :: N351SS KLAX-KSAN

N351SS :: KLAX-KSAN

FLIGHT INFORMATION

Flight Status: Arrived
Operator: Privately registered:
United States
More flights under this callsign
Pilot: Reuben K. (13591)
Aircraft: CESSNA 172 SKYHAWK
(C172)
More flights by this aircraft type
Origin: KLAX Los Angeles Intl
United States
Destination: KSAN San Diego Intl-Lindbergh
United States
More flights between these airports :: More routes between these airports
Route: +
File this flight plan on PilotEdge
Remarks:
Altitude:
(Current/Filed)
5,500ft
Speed:
(Current/Filed)
0kts
Departed: 06-Aug-19 04:04 PM
Arrived: 06-Aug-19 05:02 PM
Distance/Time
Traveled:
31nm/0:58
Distance/Time
To Go:
Arrived

Flight Plot

Page will automatically refresh every two minutes.


Map Options




Map Legend


Flown Route
Filed Route
Departure Airport
Arrival Airport
Navaid (VOR, NDB)
Fix

Horizontal Profiles

Position Reports

Time Latitude Longitude Heading Altitude Ground
Speed
06-Aug-19 15:49 33.935180 -118.385818 4 99ft 0kts
06-Aug-19 15:50 33.935180 -118.385818 4 99ft 0kts
06-Aug-19 15:51 33.935180 -118.385818 4 99ft 0kts
06-Aug-19 15:52 33.935180 -118.385818 4 99ft 0kts
06-Aug-19 15:53 33.935180 -118.385818 4 99ft 0kts
06-Aug-19 15:54 33.935180 -118.385818 4 99ft 0kts
06-Aug-19 15:55 33.935180 -118.385818 4 99ft 0kts
06-Aug-19 15:56 33.935180 -118.385818 4 99ft 0kts
06-Aug-19 15:56 33.935180 -118.385818 4 99ft 0kts
06-Aug-19 15:58 33.935180 -118.385818 4 99ft 0kts
06-Aug-19 15:58 33.935180 -118.385818 4 99ft 0kts
06-Aug-19 15:59 33.936066 -118.383317 82 96ft 13kts
06-Aug-19 16:00 33.936436 -118.382804 356 96ft 0kts
06-Aug-19 16:01 33.936435 -118.382804 356 96ft 0kts
06-Aug-19 16:02 33.936548 -118.382817 356 96ft 6kts
06-Aug-19 16:03 33.936291 -118.399495 268 587ft 79kts
06-Aug-19 16:04 33.935037 -118.427450 269 1580ft 88kts
06-Aug-19 16:05 33.928563 -118.453818 215 2568ft 85kts
06-Aug-19 16:06 33.905945 -118.471640 214 3050ft 117kts
06-Aug-19 16:07 33.878619 -118.493103 213 3048ft 116kts
06-Aug-19 16:08 33.848148 -118.498189 172 3048ft 114kts
06-Aug-19 16:09 33.816984 -118.493086 172 3049ft 112kts
06-Aug-19 16:10 33.786019 -118.487940 172 3049ft 111kts
06-Aug-19 16:11 33.759726 -118.471403 132 3049ft 111kts
06-Aug-19 16:12 33.739017 -118.443514 131 3049ft 111kts
06-Aug-19 16:13 33.718291 -118.415491 131 3048ft 111kts
06-Aug-19 16:14 33.697505 -118.386973 127 3701ft 112kts
06-Aug-19 16:15 33.678623 -118.357299 127 4402ft 111kts
06-Aug-19 16:16 33.660081 -118.327984 127 5103ft 109kts
06-Aug-19 16:17 33.641570 -118.298620 127 5568ft 116kts
06-Aug-19 16:18 33.621916 -118.267388 127 5564ft 117kts
06-Aug-19 16:19 33.602255 -118.236031 126 5564ft 117kts
06-Aug-19 16:20 33.582655 -118.204653 126 5564ft 117kts
06-Aug-19 16:21 33.563133 -118.173285 126 5564ft 117kts
06-Aug-19 16:22 33.543650 -118.141861 126 5564ft 117kts
06-Aug-19 16:23 33.524242 -118.110442 126 5564ft 117kts
06-Aug-19 16:24 33.504897 -118.079309 129 5564ft 117kts
06-Aug-19 16:25 33.484170 -118.048945 129 5564ft 117kts
06-Aug-19 16:26 33.463529 -118.018633 129 5564ft 117kts
06-Aug-19 16:27 33.442925 -117.988267 128 5564ft 117kts
06-Aug-19 16:28 33.422373 -117.957867 128 5564ft 117kts
06-Aug-19 16:29 33.401854 -117.927405 128 5564ft 117kts
06-Aug-19 16:30 33.381398 -117.896927 128 5564ft 117kts
06-Aug-19 16:31 33.361350 -117.866000 127 5564ft 117kts
06-Aug-19 16:32 33.341426 -117.834995 127 5564ft 117kts
06-Aug-19 16:33 33.321587 -117.804009 127 5564ft 117kts
06-Aug-19 16:34 33.301741 -117.772898 127 5564ft 117kts
06-Aug-19 16:35 33.282026 -117.741876 126 5564ft 117kts
06-Aug-19 16:36 33.262313 -117.710744 126 5564ft 117kts
06-Aug-19 16:37 33.242660 -117.679590 126 5564ft 117kts
06-Aug-19 16:38 33.223024 -117.648347 126 5564ft 117kts
06-Aug-19 16:39 33.203402 -117.617011 126 5564ft 117kts
06-Aug-19 16:40 33.183775 -117.585548 126 5564ft 117kts
06-Aug-19 16:41 33.163779 -117.554094 127 5498ft 122kts
06-Aug-19 16:42 33.143471 -117.522477 127 5495ft 118kts
06-Aug-19 16:43 33.123491 -117.491250 126 5496ft 118kts
06-Aug-19 16:44 33.103603 -117.460052 126 5496ft 118kts
06-Aug-19 16:45 33.086718 -117.433474 126 5471ft 118kts
06-Aug-19 16:46 33.067444 -117.403034 126 5420ft 113kts
06-Aug-19 16:47 33.045709 -117.372188 147 5023ft 125kts
06-Aug-19 16:48 33.014341 -117.353216 152 4577ft 128kts
06-Aug-19 16:49 32.982335 -117.333681 152 4075ft 129kts
06-Aug-19 16:50 32.950304 -117.314049 152 3573ft 129kts
06-Aug-19 16:51 32.920310 -117.295575 152 3499ft 114kts
06-Aug-19 16:52 32.892336 -117.278259 152 3500ft 112kts
06-Aug-19 16:53 32.864554 -117.260987 152 3500ft 112kts
06-Aug-19 16:54 32.838549 -117.244767 152 3302ft 93kts
06-Aug-19 16:55 32.815716 -117.230468 152 2837ft 95kts
06-Aug-19 16:56 32.791316 -117.216826 158 2237ft 97kts
06-Aug-19 16:57 32.765360 -117.206412 170 1607ft 98kts
06-Aug-19 16:58 32.750121 -117.183104 108 1084ft 93kts
06-Aug-19 16:59 32.738907 -117.155197 143 948ft 101kts
06-Aug-19 17:00 32.729388 -117.172496 284 260ft 76kts
06-Aug-19 17:01 32.733369 -117.187930 317 17ft 11kts
06-Aug-19 17:02 32.734224 -117.186884 98 17ft 17kts
06-Aug-19 17:03 32.736133 -117.185084 319 17ft 20kts
06-Aug-19 17:04 32.737151 -117.186735 39 18ft 0kts
06-Aug-19 17:05 32.737151 -117.186735 39 18ft 0kts
06-Aug-19 17:06 32.737151 -117.186735 39 18ft 0kts
06-Aug-19 17:07 32.737151 -117.186735 39 18ft 0kts
06-Aug-19 17:08 32.737151 -117.186735 39 18ft 0kts
06-Aug-19 17:09 32.737151 -117.186735 39 18ft 0kts
06-Aug-19 17:10 32.737151 -117.186735 39 18ft 0kts
06-Aug-19 17:11 33.667990 -117.873713 27 60ft 0kts
06-Aug-19 17:12 33.667990 -117.873713 27 60ft 0kts
06-Aug-19 17:13 33.668031 -117.873715 335 60ft 3kts
06-Aug-19 17:14 33.669325 -117.875180 206 60ft 0kts
06-Aug-19 17:15 33.669325 -117.875180 206 60ft 0kts

Navigation Log

Ident Type
Flight plan parsing failed, navigation log unavailable